sensor_id;sensor_type;location;lat;lon;timestamp;pressure;altitude;pressure_sealevel;temperature;humidity
12594;BME280;6362;50.208;9.182;2023-01-30T00:00:28;100418.00;;;-0.89;74.80
12594;BME280;6362;50.208;9.182;2023-01-30T00:02:53;100417.13;;;-0.90;74.13
12594;BME280;6362;50.208;9.182;2023-01-30T00:05:19;100431.44;;;-0.93;73.75
12594;BME280;6362;50.208;9.182;2023-01-30T00:07:46;100417.41;;;-0.84;74.24
12594;BME280;6362;50.208;9.182;2023-01-30T00:10:12;100410.69;;;-0.82;74.12
12594;BME280;6362;50.208;9.182;2023-01-30T00:12:38;100409.13;;;-0.97;74.46
12594;BME280;6362;50.208;9.182;2023-01-30T00:15:04;100408.69;;;-0.89;74.67
12594;BME280;6362;50.208;9.182;2023-01-30T00:17:29;100419.00;;;-1.05;75.75
12594;BME280;6362;50.208;9.182;2023-01-30T00:19:55;100415.53;;;-1.06;75.46
12594;BME280;6362;50.208;9.182;2023-01-30T00:22:20;100424.00;;;-0.89;75.61
12594;BME280;6362;50.208;9.182;2023-01-30T00:24:46;100419.34;;;-0.97;75.34
12594;BME280;6362;50.208;9.182;2023-01-30T00:27:11;100413.13;;;-1.02;75.75
12594;BME280;6362;50.208;9.182;2023-01-30T00:29:37;100396.13;;;-1.02;76.08
12594;BME280;6362;50.208;9.182;2023-01-30T00:32:02;100389.81;;;-1.10;77.15
12594;BME280;6362;50.208;9.182;2023-01-30T00:34:28;100364.31;;;-1.10;77.81
12594;BME280;6362;50.208;9.182;2023-01-30T00:36:53;100362.84;;;-0.86;77.14
12594;BME280;6362;50.208;9.182;2023-01-30T00:39:19;100352.81;;;-1.00;77.42
12594;BME280;6362;50.208;9.182;2023-01-30T00:41:44;100336.72;;;-0.99;77.99
12594;BME280;6362;50.208;9.182;2023-01-30T00:44:28;100331.81;;;-0.75;77.29
12594;BME280;6362;50.208;9.182;2023-01-30T00:47:12;100341.22;;;-0.94;77.94
12594;BME280;6362;50.208;9.182;2023-01-30T00:49:38;100340.00;;;-1.02;78.30
12594;BME280;6362;50.208;9.182;2023-01-30T00:52:04;100353.97;;;-0.94;77.88
12594;BME280;6362;50.208;9.182;2023-01-30T00:54:30;100352.63;;;-0.86;77.57
12594;BME280;6362;50.208;9.182;2023-01-30T00:56:55;100348.72;;;-0.97;77.70
12594;BME280;6362;50.208;9.182;2023-01-30T00:59:21;100338.34;;;-0.82;78.06
12594;BME280;6362;50.208;9.182;2023-01-30T01:01:46;100322.53;;;-0.73;77.52
12594;BME280;6362;50.208;9.182;2023-01-30T01:04:12;100324.69;;;-0.83;77.65
12594;BME280;6362;50.208;9.182;2023-01-30T01:06:39;100318.44;;;-0.70;76.86
12594;BME280;6362;50.208;9.182;2023-01-30T01:09:05;100319.72;;;-0.80;77.52
12594;BME280;6362;50.208;9.182;2023-01-30T01:11:31;100302.09;;;-0.73;77.63
12594;BME280;6362;50.208;9.182;2023-01-30T01:13:58;100306.69;;;-0.66;77.56
12594;BME280;6362;50.208;9.182;2023-01-30T01:16:25;100308.44;;;-0.65;77.69
12594;BME280;6362;50.208;9.182;2023-01-30T01:18:52;100309.75;;;-0.73;77.94
12594;BME280;6362;50.208;9.182;2023-01-30T01:21:19;100296.78;;;-0.78;77.83
12594;BME280;6362;50.208;9.182;2023-01-30T01:23:52;100297.19;;;-0.69;77.46
12594;BME280;6362;50.208;9.182;2023-01-30T01:26:18;100303.13;;;-0.70;77.58
12594;BME280;6362;50.208;9.182;2023-01-30T01:28:44;100304.25;;;-0.63;78.12
12594;BME280;6362;50.208;9.182;2023-01-30T01:31:10;100304.44;;;-0.59;78.10
12594;BME280;6362;50.208;9.182;2023-01-30T01:33:37;100285.19;;;-0.50;77.27
12594;BME280;6362;50.208;9.182;2023-01-30T01:36:02;100280.44;;;-0.43;76.89
12594;BME280;6362;50.208;9.182;2023-01-30T01:38:28;100267.59;;;-0.44;77.22
12594;BME280;6362;50.208;9.182;2023-01-30T01:40:53;100271.09;;;-0.42;76.99
12594;BME280;6362;50.208;9.182;2023-01-30T01:43:32;100284.06;;;-0.57;78.14
12594;BME280;6362;50.208;9.182;2023-01-30T01:46:04;100304.97;;;-0.46;78.03
12594;BME280;6362;50.208;9.182;2023-01-30T01:48:35;100313.72;;;-0.41;77.82
12594;BME280;6362;50.208;9.182;2023-01-30T01:51:08;100307.41;;;-0.49;78.01
12594;BME280;6362;50.208;9.182;2023-01-30T01:53:41;100301.50;;;-0.48;78.39
12594;BME280;6362;50.208;9.182;2023-01-30T01:56:09;100294.13;;;-0.41;77.86
12594;BME280;6362;50.208;9.182;2023-01-30T01:58:44;100287.13;;;-0.45;78.37
12594;BME280;6362;50.208;9.182;2023-01-30T02:01:12;100287.28;;;-0.42;78.40
12594;BME280;6362;50.208;9.182;2023-01-30T02:03:41;100273.44;;;-0.47;78.56
12594;BME280;6362;50.208;9.182;2023-01-30T02:06:10;100255.31;;;-0.53;78.71
12594;BME280;6362;50.208;9.182;2023-01-30T02:08:39;100248.59;;;-0.30;77.98
12594;BME280;6362;50.208;9.182;2023-01-30T02:11:09;100256.63;;;-0.42;78.07
12594;BME280;6362;50.208;9.182;2023-01-30T02:13:37;100245.97;;;-0.32;78.44
12594;BME280;6362;50.208;9.182;2023-01-30T02:16:04;100240.44;;;-0.42;78.36
12594;BME280;6362;50.208;9.182;2023-01-30T02:18:31;100231.28;;;-0.37;78.10
12594;BME280;6362;50.208;9.182;2023-01-30T02:26:30;100230.69;;;-0.30;77.66
12594;BME280;6362;50.208;9.182;2023-01-30T02:32:11;100220.91;;;-0.40;78.22
12594;BME280;6362;50.208;9.182;2023-01-30T02:50:42;100214.25;;;-0.37;78.97
12594;BME280;6362;50.208;9.182;2023-01-30T02:53:08;100209.72;;;-0.44;78.54
12594;BME280;6362;50.208;9.182;2023-01-30T02:55:34;100211.66;;;-0.38;78.84
12594;BME280;6362;50.208;9.182;2023-01-30T02:58:02;100211.69;;;-0.37;78.64
12594;BME280;6362;50.208;9.182;2023-01-30T03:00:51;100217.72;;;-0.35;78.40
12594;BME280;6362;50.208;9.182;2023-01-30T03:06:14;100217.72;;;-0.35;78.95
12594;BME280;6362;50.208;9.182;2023-01-30T03:11:17;100218.16;;;-0.24;78.79
12594;BME280;6362;50.208;9.182;2023-01-30T03:14:02;100217.19;;;-0.28;78.57
12594;BME280;6362;50.208;9.182;2023-01-30T03:16:39;100223.72;;;-0.34;78.66
12594;BME280;6362;50.208;9.182;2023-01-30T03:19:09;100216.06;;;-0.34;78.52
12594;BME280;6362;50.208;9.182;2023-01-30T03:21:42;100215.44;;;-0.29;78.59
12594;BME280;6362;50.208;9.182;2023-01-30T03:24:09;100216.28;;;-0.28;78.34
12594;BME280;6362;50.208;9.182;2023-01-30T03:26:38;100203.41;;;-0.31;78.62
12594;BME280;6362;50.208;9.182;2023-01-30T03:29:04;100197.63;;;-0.27;78.66
12594;BME280;6362;50.208;9.182;2023-01-30T03:31:30;100196.81;;;-0.26;78.91
12594;BME280;6362;50.208;9.182;2023-01-30T03:33:55;100196.13;;;-0.22;78.47
12594;BME280;6362;50.208;9.182;2023-01-30T03:36:21;100193.56;;;-0.22;78.53
12594;BME280;6362;50.208;9.182;2023-01-30T03:38:46;100203.84;;;-0.20;77.92
12594;BME280;6362;50.208;9.182;2023-01-30T03:41:12;100197.88;;;-0.21;78.21
12594;BME280;6362;50.208;9.182;2023-01-30T03:43:37;100195.41;;;-0.18;78.00
12594;BME280;6362;50.208;9.182;2023-01-30T03:46:03;100191.41;;;-0.11;78.22
12594;BME280;6362;50.208;9.182;2023-01-30T03:48:28;100182.88;;;-0.12;78.25
12594;BME280;6362;50.208;9.182;2023-01-30T03:50:54;100184.00;;;-0.05;77.97
12594;BME280;6362;50.208;9.182;2023-01-30T03:53:19;100156.66;;;-0.06;77.94
12594;BME280;6362;50.208;9.182;2023-01-30T03:55:45;100175.34;;;-0.09;78.35
12594;BME280;6362;50.208;9.182;2023-01-30T03:58:10;100176.66;;;0.04;77.90
12594;BME280;6362;50.208;9.182;2023-01-30T04:00:36;100152.75;;;0.02;78.20
12594;BME280;6362;50.208;9.182;2023-01-30T04:03:02;100151.69;;;-0.03;78.06
12594;BME280;6362;50.208;9.182;2023-01-30T04:05:27;100153.97;;;-0.11;78.60
12594;BME280;6362;50.208;9.182;2023-01-30T04:07:55;100147.16;;;-0.10;78.52
12594;BME280;6362;50.208;9.182;2023-01-30T04:10:21;100147.03;;;-0.13;78.79
12594;BME280;6362;50.208;9.182;2023-01-30T04:12:47;100140.47;;;-0.07;79.04
12594;BME280;6362;50.208;9.182;2023-01-30T04:15:13;100144.38;;;-0.16;79.01
12594;BME280;6362;50.208;9.182;2023-01-30T04:17:38;100145.53;;;-0.08;78.83
12594;BME280;6362;50.208;9.182;2023-01-30T04:20:04;100131.25;;;-0.03;78.52
12594;BME280;6362;50.208;9.182;2023-01-30T04:22:29;100131.94;;;-0.07;78.81
12594;BME280;6362;50.208;9.182;2023-01-30T04:24:55;100126.19;;;-0.02;78.24
12594;BME280;6362;50.208;9.182;2023-01-30T04:27:20;100127.75;;;-0.05;78.23
12594;BME280;6362;50.208;9.182;2023-01-30T04:29:46;100126.88;;;-0.06;78.50
12594;BME280;6362;50.208;9.182;2023-01-30T04:32:11;100115.91;;;-0.03;78.10
12594;BME280;6362;50.208;9.182;2023-01-30T04:34:37;100118.69;;;0.03;78.22
12594;BME280;6362;50.208;9.182;2023-01-30T04:37:02;100121.00;;;-0.03;78.63
12594;BME280;6362;50.208;9.182;2023-01-30T04:39:28;100113.56;;;0.03;78.57
12594;BME280;6362;50.208;9.182;2023-01-30T04:41:53;100104.81;;;-0.04;78.28
12594;BME280;6362;50.208;9.182;2023-01-30T04:44:19;100104.97;;;0.01;78.38
12594;BME280;6362;50.208;9.182;2023-01-30T04:46:44;100101.47;;;-0.01;79.04
12594;BME280;6362;50.208;9.182;2023-01-30T04:49:10;100095.22;;;-0.09;78.92
12594;BME280;6362;50.208;9.182;2023-01-30T04:51:35;100090.94;;;-0.10;79.41
12594;BME280;6362;50.208;9.182;2023-01-30T04:54:01;100095.56;;;0.00;79.03
12594;BME280;6362;50.208;9.182;2023-01-30T04:56:26;100088.91;;;0.05;78.88
12594;BME280;6362;50.208;9.182;2023-01-30T04:58:51;100083.75;;;0.04;79.32
12594;BME280;6362;50.208;9.182;2023-01-30T05:01:35;100064.47;;;0.12;78.88
12594;BME280;6362;50.208;9.182;2023-01-30T05:04:01;100064.47;;;0.12;78.94
12594;BME280;6362;50.208;9.182;2023-01-30T05:06:27;100055.81;;;0.08;79.33
12594;BME280;6362;50.208;9.182;2023-01-30T05:08:54;100059.28;;;0.10;78.88
12594;BME280;6362;50.208;9.182;2023-01-30T05:11:21;100059.19;;;0.07;79.47
12594;BME280;6362;50.208;9.182;2023-01-30T05:13:47;100062.59;;;0.08;79.22
12594;BME280;6362;50.208;9.182;2023-01-30T05:16:13;100063.13;;;-0.01;79.20
12594;BME280;6362;50.208;9.182;2023-01-30T05:18:39;100063.09;;;-0.03;79.15
12594;BME280;6362;50.208;9.182;2023-01-30T05:21:16;100056.59;;;0.06;79.72
12594;BME280;6362;50.208;9.182;2023-01-30T05:23:42;100054.94;;;0.08;79.37
12594;BME280;6362;50.208;9.182;2023-01-30T05:26:11;100054.50;;;0.19;79.17
12594;BME280;6362;50.208;9.182;2023-01-30T05:28:38;100048.78;;;0.26;78.85
12594;BME280;6362;50.208;9.182;2023-01-30T05:31:12;100044.41;;;0.22;78.88
12594;BME280;6362;50.208;9.182;2023-01-30T05:33:39;100048.53;;;0.19;79.54
12594;BME280;6362;50.208;9.182;2023-01-30T05:36:05;100036.78;;;0.24;79.14
12594;BME280;6362;50.208;9.182;2023-01-30T05:38:31;100036.16;;;0.31;78.49
12594;BME280;6362;50.208;9.182;2023-01-30T05:41:01;100052.13;;;0.24;78.85
12594;BME280;6362;50.208;9.182;2023-01-30T05:43:27;100032.78;;;0.32;78.61
12594;BME280;6362;50.208;9.182;2023-01-30T05:45:54;100034.38;;;0.29;78.34
12594;BME280;6362;50.208;9.182;2023-01-30T05:48:20;100025.72;;;0.25;78.67
12594;BME280;6362;50.208;9.182;2023-01-30T05:50:46;100028.44;;;0.30;79.17
12594;BME280;6362;50.208;9.182;2023-01-30T05:53:11;100014.78;;;0.29;78.58
12594;BME280;6362;50.208;9.182;2023-01-30T05:55:38;100020.59;;;0.25;78.92
12594;BME280;6362;50.208;9.182;2023-01-30T05:58:03;100027.78;;;0.35;79.32
12594;BME280;6362;50.208;9.182;2023-01-30T06:00:29;100025.41;;;0.40;79.11
12594;BME280;6362;50.208;9.182;2023-01-30T06:02:54;100013.50;;;0.42;78.83
12594;BME280;6362;50.208;9.182;2023-01-30T06:05:20;100018.31;;;0.33;78.98
12594;BME280;6362;50.208;9.182;2023-01-30T06:07:45;100012.94;;;0.25;78.97
12594;BME280;6362;50.208;9.182;2023-01-30T06:10:11;100003.03;;;0.34;79.05
12594;BME280;6362;50.208;9.182;2023-01-30T06:12:36;100004.84;;;0.38;78.91
12594;BME280;6362;50.208;9.182;2023-01-30T06:15:02;99993.38;;;0.27;79.34
12594;BME280;6362;50.208;9.182;2023-01-30T06:17:27;99996.06;;;0.30;79.46
12594;BME280;6362;50.208;9.182;2023-01-30T06:19:53;100001.72;;;0.21;79.55
12594;BME280;6362;50.208;9.182;2023-01-30T06:22:18;99998.56;;;0.29;79.22
12594;BME280;6362;50.208;9.182;2023-01-30T06:24:44;100002.59;;;0.22;79.74
12594;BME280;6362;50.208;9.182;2023-01-30T06:27:09;100005.44;;;0.30;79.74
12594;BME280;6362;50.208;9.182;2023-01-30T06:29:35;100010.50;;;0.28;79.79
12594;BME280;6362;50.208;9.182;2023-01-30T06:32:01;100012.94;;;0.25;79.60
12594;BME280;6362;50.208;9.182;2023-01-30T06:34:26;100000.94;;;0.22;80.39
12594;BME280;6362;50.208;9.182;2023-01-30T06:36:52;100010.22;;;0.20;80.11
12594;BME280;6362;50.208;9.182;2023-01-30T06:39:17;100002.59;;;0.22;80.09
12594;BME280;6362;50.208;9.182;2023-01-30T06:41:43;100000.94;;;0.22;79.91
12594;BME280;6362;50.208;9.182;2023-01-30T06:44:08;100003.47;;;0.22;80.33
12594;BME280;6362;50.208;9.182;2023-01-30T06:46:34;100016.75;;;0.12;80.40
12594;BME280;6362;50.208;9.182;2023-01-30T06:48:59;100021.91;;;0.14;80.58
12594;BME280;6362;50.208;9.182;2023-01-30T06:51:25;100032.34;;;0.20;80.70
12594;BME280;6362;50.208;9.182;2023-01-30T06:53:52;100036.78;;;0.24;80.37
12594;BME280;6362;50.208;9.182;2023-01-30T06:56:17;100025.56;;;0.20;80.76
12594;BME280;6362;50.208;9.182;2023-01-30T06:58:43;100031.38;;;0.16;80.96
12594;BME280;6362;50.208;9.182;2023-01-30T07:01:09;100041.75;;;0.21;80.93
12594;BME280;6362;50.208;9.182;2023-01-30T07:03:34;100047.09;;;0.27;80.89
12594;BME280;6362;50.208;9.182;2023-01-30T07:06:00;100050.66;;;0.31;81.02
12594;BME280;6362;50.208;9.182;2023-01-30T07:08:25;100049.22;;;0.39;80.60
12594;BME280;6362;50.208;9.182;2023-01-30T07:10:51;100048.88;;;0.28;81.11
12594;BME280;6362;50.208;9.182;2023-01-30T07:13:16;100045.50;;;0.55;82.19
12594;BME280;6362;50.208;9.182;2023-01-30T07:15:43;100056.06;;;0.64;80.96
12594;BME280;6362;50.208;9.182;2023-01-30T07:18:08;100063.47;;;0.82;81.44
12594;BME280;6362;50.208;9.182;2023-01-30T07:20:34;100053.94;;;0.77;79.88
12594;BME280;6362;50.208;9.182;2023-01-30T07:22:59;100046.38;;;0.81;79.34
12594;BME280;6362;50.208;9.182;2023-01-30T07:25:26;100047.72;;;0.69;78.94
12594;BME280;6362;50.208;9.182;2023-01-30T07:27:58;100040.47;;;0.56;79.39
12594;BME280;6362;50.208;9.182;2023-01-30T07:30:24;100036.38;;;0.61;79.78
12594;BME280;6362;50.208;9.182;2023-01-30T07:32:56;100034.72;;;0.63;79.69
12594;BME280;6362;50.208;9.182;2023-01-30T07:35:22;100040.88;;;0.68;79.22
12594;BME280;6362;50.208;9.182;2023-01-30T07:37:49;100023.66;;;0.64;79.55
12594;BME280;6362;50.208;9.182;2023-01-30T07:40:15;100033.03;;;0.64;79.09
12594;BME280;6362;50.208;9.182;2023-01-30T07:42:41;100029.59;;;0.63;79.64
12594;BME280;6362;50.208;9.182;2023-01-30T07:45:07;100046.59;;;0.61;79.47
12594;BME280;6362;50.208;9.182;2023-01-30T07:47:33;100052.00;;;0.70;79.44
12594;BME280;6362;50.208;9.182;2023-01-30T07:49:59;100040.50;;;0.58;80.03
12594;BME280;6362;50.208;9.182;2023-01-30T07:52:24;100030.66;;;0.70;79.73
12594;BME280;6362;50.208;9.182;2023-01-30T07:54:50;100034.97;;;0.71;79.47
12594;BME280;6362;50.208;9.182;2023-01-30T07:57:15;100025.59;;;0.71;79.58
12594;BME280;6362;50.208;9.182;2023-01-30T07:59:41;100021.06;;;0.63;80.19
12594;BME280;6362;50.208;9.182;2023-01-30T08:02:10;100016.47;;;0.54;80.20
12594;BME280;6362;50.208;9.182;2023-01-30T08:04:35;100004.34;;;0.48;80.60
12594;BME280;6362;50.208;9.182;2023-01-30T08:07:01;100010.81;;;0.63;80.30
12594;BME280;6362;50.208;9.182;2023-01-30T08:09:26;99995.72;;;0.70;80.44
12594;BME280;6362;50.208;9.182;2023-01-30T08:11:52;99993.66;;;0.60;80.01
12594;BME280;6362;50.208;9.182;2023-01-30T08:14:17;99995.47;;;0.63;80.70
12594;BME280;6362;50.208;9.182;2023-01-30T08:16:43;100005.69;;;0.63;80.79
12594;BME280;6362;50.208;9.182;2023-01-30T08:19:08;99990.63;;;0.72;80.43
12594;BME280;6362;50.208;9.182;2023-01-30T08:21:34;99997.44;;;0.71;80.40
12594;BME280;6362;50.208;9.182;2023-01-30T08:23:59;99995.63;;;0.67;80.95
12594;BME280;6362;50.208;9.182;2023-01-30T08:26:25;99991.38;;;0.68;80.63
12594;BME280;6362;50.208;9.182;2023-01-30T08:28:50;99992.03;;;0.62;80.92
12594;BME280;6362;50.208;9.182;2023-01-30T08:31:16;100004.53;;;0.78;80.87
12594;BME280;6362;50.208;9.182;2023-01-30T08:33:41;99995.38;;;0.87;80.61
12594;BME280;6362;50.208;9.182;2023-01-30T08:36:07;99989.34;;;0.85;80.77
12594;BME280;6362;50.208;9.182;2023-01-30T08:38:33;100004.81;;;0.88;80.60
12594;BME280;6362;50.208;9.182;2023-01-30T08:40:58;100000.44;;;0.84;80.84
12594;BME280;6362;50.208;9.182;2023-01-30T08:43:25;99990.22;;;0.85;80.87
12594;BME280;6362;50.208;9.182;2023-01-30T08:45:55;99987.00;;;0.91;80.42
12594;BME280;6362;50.208;9.182;2023-01-30T08:48:20;99982.50;;;0.84;81.16
12594;BME280;6362;50.208;9.182;2023-01-30T08:50:51;99973.22;;;0.87;81.13
12594;BME280;6362;50.208;9.182;2023-01-30T08:53:17;99964.97;;;0.96;81.05
12594;BME280;6362;50.208;9.182;2023-01-30T08:55:43;99964.84;;;0.93;81.31
12594;BME280;6362;50.208;9.182;2023-01-30T08:58:09;99970.63;;;0.86;81.64
12594;BME280;6362;50.208;9.182;2023-01-30T09:00:34;99959.84;;;0.96;81.26
12594;BME280;6362;50.208;9.182;2023-01-30T09:03:00;99962.22;;;0.90;81.83
12594;BME280;6362;50.208;9.182;2023-01-30T09:05:26;99968.25;;;0.92;82.06
12594;BME280;6362;50.208;9.182;2023-01-30T09:07:52;99965.13;;;1.00;81.80
12594;BME280;6362;50.208;9.182;2023-01-30T09:10:18;99962.25;;;0.91;81.69
12594;BME280;6362;50.208;9.182;2023-01-30T09:12:43;99961.03;;;1.07;81.74
12594;BME280;6362;50.208;9.182;2023-01-30T09:15:11;99948.09;;;1.02;81.30
12594;BME280;6362;50.208;9.182;2023-01-30T09:17:36;99957.38;;;0.99;82.13
12594;BME280;6362;50.208;9.182;2023-01-30T09:20:07;99950.22;;;0.89;82.05
12594;BME280;6362;50.208;9.182;2023-01-30T09:22:33;99953.97;;;1.00;82.13
12594;BME280;6362;50.208;9.182;2023-01-30T09:24:58;99948.75;;;0.95;82.32
12594;BME280;6362;50.208;9.182;2023-01-30T09:27:24;99955.78;;;1.02;81.88
12594;BME280;6362;50.208;9.182;2023-01-30T09:29:50;99950.69;;;1.04;81.86
12594;BME280;6362;50.208;9.182;2023-01-30T09:32:15;99932.63;;;0.99;82.20
12594;BME280;6362;50.208;9.182;2023-01-30T09:34:40;99920.97;;;1.09;81.71
12594;BME280;6362;50.208;9.182;2023-01-30T09:37:06;99929.31;;;1.02;82.15
12594;BME280;6362;50.208;9.182;2023-01-30T09:39:32;99934.66;;;1.10;81.72
12594;BME280;6362;50.208;9.182;2023-01-30T09:55:25;99922.78;;;1.12;82.21
12594;BME280;6362;50.208;9.182;2023-01-30T09:57:53;99940.75;;;1.13;82.39
12594;BME280;6362;50.208;9.182;2023-01-30T10:00:40;99945.94;;;1.16;82.25
12594;BME280;6362;50.208;9.182;2023-01-30T10:06:13;99929.88;;;1.22;81.89
12594;BME280;6362;50.208;9.182;2023-01-30T10:08:44;99920.72;;;1.28;81.98
12594;BME280;6362;50.208;9.182;2023-01-30T10:28:21;99923.75;;;1.45;81.98
12594;BME280;6362;50.208;9.182;2023-01-30T10:30:50;99915.38;;;1.51;81.66
12594;BME280;6362;50.208;9.182;2023-01-30T10:33:26;99924.06;;;1.56;81.38
12594;BME280;6362;50.208;9.182;2023-01-30T10:36:06;99927.34;;;1.50;81.52
12594;BME280;6362;50.208;9.182;2023-01-30T10:38:57;99929.22;;;1.57;81.10
12594;BME280;6362;50.208;9.182;2023-01-30T10:41:35;99914.00;;;1.62;80.83
12594;BME280;6362;50.208;9.182;2023-01-30T10:44:10;99902.38;;;1.75;80.95
12594;BME280;6362;50.208;9.182;2023-01-30T10:49:43;99903.00;;;1.99;79.42
12594;BME280;6362;50.208;9.182;2023-01-30T10:58:23;99923.06;;;2.47;78.39
12594;BME280;6362;50.208;9.182;2023-01-30T11:03:39;99926.41;;;2.79;77.16
12594;BME280;6362;50.208;9.182;2023-01-30T11:06:18;99924.88;;;2.87;76.76
12594;BME280;6362;50.208;9.182;2023-01-30T11:08:48;99925.00;;;2.94;77.16
12594;BME280;6362;50.208;9.182;2023-01-30T11:11:46;99926.22;;;3.09;76.46
12594;BME280;6362;50.208;9.182;2023-01-30T11:14:12;99925.19;;;3.39;75.90
12594;BME280;6362;50.208;9.182;2023-01-30T11:16:47;99922.06;;;3.55;75.70
12594;BME280;6362;50.208;9.182;2023-01-30T11:19:21;99917.63;;;3.89;74.53
12594;BME280;6362;50.208;9.182;2023-01-30T11:21:53;99904.56;;;4.27;72.84
12594;BME280;6362;50.208;9.182;2023-01-30T11:24:28;99912.09;;;5.25;70.54
12594;BME280;6362;50.208;9.182;2023-01-30T11:26:55;99920.13;;;6.21;66.80
12594;BME280;6362;50.208;9.182;2023-01-30T11:29:33;99916.44;;;5.97;66.28
12594;BME280;6362;50.208;9.182;2023-01-30T11:32:03;99926.41;;;6.47;65.63
12594;BME280;6362;50.208;9.182;2023-01-30T11:34:29;99895.09;;;7.29;61.73
12594;BME280;6362;50.208;9.182;2023-01-30T11:37:14;99903.69;;;7.24;61.70
12594;BME280;6362;50.208;9.182;2023-01-30T11:39:50;99899.84;;;6.64;63.21
12594;BME280;6362;50.208;9.182;2023-01-30T11:42:18;99904.25;;;5.86;66.13
12594;BME280;6362;50.208;9.182;2023-01-30T11:44:45;99893.59;;;5.58;66.62
12594;BME280;6362;50.208;9.182;2023-01-30T11:47:23;99903.34;;;5.14;68.59
12594;BME280;6362;50.208;9.182;2023-01-30T11:49:52;99910.84;;;4.97;69.17
12594;BME280;6362;50.208;9.182;2023-01-30T11:52:25;99905.09;;;4.59;71.04
12594;BME280;6362;50.208;9.182;2023-01-30T11:54:53;99914.38;;;4.49;70.43
12594;BME280;6362;50.208;9.182;2023-01-30T11:57:25;99902.31;;;4.45;71.38
12594;BME280;6362;50.208;9.182;2023-01-30T11:59:59;99889.28;;;4.37;72.07
12594;BME280;6362;50.208;9.182;2023-01-30T12:02:31;99890.72;;;4.20;73.27
12594;BME280;6362;50.208;9.182;2023-01-30T12:05:17;99895.78;;;4.15;73.54
12594;BME280;6362;50.208;9.182;2023-01-30T12:07:45;99898.03;;;3.97;73.98
12594;BME280;6362;50.208;9.182;2023-01-30T12:12:51;99900.69;;;4.00;74.52
12594;BME280;6362;50.208;9.182;2023-01-30T12:15:24;99900.59;;;3.95;74.21
12594;BME280;6362;50.208;9.182;2023-01-30T12:25:26;99892.22;;;4.07;74.39
12594;BME280;6362;50.208;9.182;2023-01-30T12:28:01;99896.50;;;4.07;74.92
12594;BME280;6362;50.208;9.182;2023-01-30T12:30:38;99888.78;;;4.07;74.93
12594;BME280;6362;50.208;9.182;2023-01-30T12:33:11;99879.38;;;4.09;74.93
12594;BME280;6362;50.208;9.182;2023-01-30T12:40:58;99864.94;;;4.17;74.75
12594;BME280;6362;50.208;9.182;2023-01-30T12:43:30;99876.03;;;4.14;75.52
12594;BME280;6362;50.208;9.182;2023-01-30T12:46:07;99876.72;;;4.04;75.78
12594;BME280;6362;50.208;9.182;2023-01-30T12:51:53;99878.22;;;3.93;76.45
12594;BME280;6362;50.208;9.182;2023-01-30T12:57:32;99893.72;;;3.96;77.61
12594;BME280;6362;50.208;9.182;2023-01-30T13:21:55;99902.34;;;4.00;80.77
12594;BME280;6362;50.208;9.182;2023-01-30T13:27:19;99896.88;;;3.83;80.33
12594;BME280;6362;50.208;9.182;2023-01-30T13:29:47;99903.63;;;3.76;81.04
12594;BME280;6362;50.208;9.182;2023-01-30T13:32:20;99912.97;;;3.71;81.53
12594;BME280;6362;50.208;9.182;2023-01-30T13:34:51;99901.75;;;3.67;81.88
12594;BME280;6362;50.208;9.182;2023-01-30T13:37:19;99899.28;;;3.72;81.98
12594;BME280;6362;50.208;9.182;2023-01-30T13:39:49;99897.72;;;3.80;81.83
12594;BME280;6362;50.208;9.182;2023-01-30T13:42:29;99904.78;;;3.90;80.86
12594;BME280;6362;50.208;9.182;2023-01-30T13:44:57;99892.00;;;3.95;81.60
12594;BME280;6362;50.208;9.182;2023-01-30T13:56:00;99899.16;;;4.63;78.27
12594;BME280;6362;50.208;9.182;2023-01-30T14:00:53;99902.22;;;5.60;72.90
12594;BME280;6362;50.208;9.182;2023-01-30T14:03:32;99907.28;;;6.28;71.79
12594;BME280;6362;50.208;9.182;2023-01-30T14:06:04;99900.06;;;6.97;68.55
12594;BME280;6362;50.208;9.182;2023-01-30T14:11:34;99904.00;;;8.09;65.16
12594;BME280;6362;50.208;9.182;2023-01-30T14:16:52;99906.47;;;7.70;65.33
12594;BME280;6362;50.208;9.182;2023-01-30T14:19:41;99908.88;;;7.28;66.29
12594;BME280;6362;50.208;9.182;2023-01-30T14:32:55;99930.63;;;5.63;72.03
12594;BME280;6362;50.208;9.182;2023-01-30T14:35:23;99931.25;;;5.44;72.99
12594;BME280;6362;50.208;9.182;2023-01-30T14:37:50;99934.81;;;5.53;77.30
12594;BME280;6362;50.208;9.182;2023-01-30T14:45:45;99957.88;;;6.08;74.25
12594;BME280;6362;50.208;9.182;2023-01-30T14:48:37;99966.16;;;5.84;71.68
12594;BME280;6362;50.208;9.182;2023-01-30T14:53:54;99973.41;;;5.46;73.41
12594;BME280;6362;50.208;9.182;2023-01-30T14:56:55;99979.38;;;5.42;72.85
12594;BME280;6362;50.208;9.182;2023-01-30T15:01:57;100002.47;;;5.34;74.03
12594;BME280;6362;50.208;9.182;2023-01-30T15:04:26;100000.63;;;5.25;73.81
12594;BME280;6362;50.208;9.182;2023-01-30T15:06:55;100009.13;;;5.20;73.64
12594;BME280;6362;50.208;9.182;2023-01-30T15:09:24;100009.72;;;5.03;73.58
12594;BME280;6362;50.208;9.182;2023-01-30T15:14:37;100014.00;;;5.03;73.26
12594;BME280;6362;50.208;9.182;2023-01-30T15:20:14;100015.66;;;4.99;73.50
12594;BME280;6362;50.208;9.182;2023-01-30T15:28:14;100031.78;;;4.86;71.93
12594;BME280;6362;50.208;9.182;2023-01-30T15:33:43;100040.53;;;4.94;71.23
12594;BME280;6362;50.208;9.182;2023-01-30T15:36:19;100037.06;;;4.94;70.24
12594;BME280;6362;50.208;9.182;2023-01-30T15:38:45;100044.78;;;4.94;69.63
12594;BME280;6362;50.208;9.182;2023-01-30T15:41:10;100050.75;;;4.91;69.90
12594;BME280;6362;50.208;9.182;2023-01-30T15:46:40;100059.47;;;4.99;67.50
12594;BME280;6362;50.208;9.182;2023-01-30T15:51:42;100058.66;;;5.00;67.80
12594;BME280;6362;50.208;9.182;2023-01-30T15:54:09;100067.97;;;4.94;67.64
12594;BME280;6362;50.208;9.182;2023-01-30T15:56:37;100066.00;;;4.78;68.18
12594;BME280;6362;50.208;9.182;2023-01-30T15:59:04;100072.88;;;4.79;68.16
12594;BME280;6362;50.208;9.182;2023-01-30T16:01:30;100073.72;;;4.78;68.43
12594;BME280;6362;50.208;9.182;2023-01-30T16:03:56;100075.38;;;4.75;68.28
12594;BME280;6362;50.208;9.182;2023-01-30T16:09:19;100071.84;;;4.69;69.08
12594;BME280;6362;50.208;9.182;2023-01-30T16:11:45;100078.69;;;4.67;69.79
12594;BME280;6362;50.208;9.182;2023-01-30T16:14:15;100092.31;;;4.61;69.97
12594;BME280;6362;50.208;9.182;2023-01-30T16:17:02;100093.84;;;4.52;70.57
12594;BME280;6362;50.208;9.182;2023-01-30T16:19:31;100101.59;;;4.53;71.20